createdAt,value
2023-04-02T00:02:34.892Z,13.90
2023-04-02T00:05:51.668Z,13.80
2023-04-02T00:08:23.903Z,13.80
2023-04-02T00:10:54.330Z,13.80
2023-04-02T00:13:31.089Z,13.80
2023-04-02T00:16:01.166Z,13.80
2023-04-02T00:18:30.034Z,13.80
2023-04-02T00:21:07.276Z,13.70
2023-04-02T00:23:38.520Z,13.70
2023-04-02T00:26:08.519Z,13.60
2023-04-02T00:28:38.275Z,13.60
2023-04-02T00:31:06.947Z,13.60
2023-04-02T00:33:36.326Z,13.50
2023-04-02T00:36:08.549Z,13.50
2023-04-02T00:38:38.234Z,13.50
2023-04-02T00:41:08.590Z,13.40
2023-04-02T00:43:39.699Z,13.40
2023-04-02T00:46:14.229Z,13.30
2023-04-02T00:48:47.381Z,13.30
2023-04-02T00:51:22.230Z,13.30
2023-04-02T00:53:53.362Z,13.30
2023-04-02T00:56:27.240Z,13.30
2023-04-02T00:58:58.326Z,13.30
2023-04-02T01:01:34.286Z,13.30
2023-04-02T01:04:03.571Z,13.30
2023-04-02T01:06:34.857Z,13.30
2023-04-02T01:09:14.731Z,13.30
2023-04-02T01:12:02.315Z,13.30
2023-04-02T01:14:44.364Z,13.20
2023-04-02T01:17:28.349Z,13.20
2023-04-02T01:20:24.034Z,13.20
2023-04-02T01:22:56.688Z,13.10
2023-04-02T01:25:30.267Z,13.00
2023-04-02T01:28:07.522Z,13.00
2023-04-02T01:30:38.290Z,12.90
2023-04-02T01:33:07.384Z,12.90
2023-04-02T01:35:39.907Z,12.90
2023-04-02T01:38:13.934Z,12.80
2023-04-02T01:40:48.269Z,12.80
2023-04-02T01:43:25.484Z,12.70
2023-04-02T01:45:55.251Z,12.70
2023-04-02T01:48:27.588Z,12.60
2023-04-02T01:50:58.841Z,12.50
2023-04-02T01:53:30.803Z,12.50
2023-04-02T01:56:01.234Z,12.50
2023-04-02T01:58:32.859Z,12.50
2023-04-02T02:01:08.445Z,12.40
2023-04-02T02:03:45.591Z,12.30
2023-04-02T02:06:16.482Z,12.30
2023-04-02T02:08:50.458Z,12.30
2023-04-02T02:11:21.638Z,12.20
2023-04-02T02:13:54.697Z,12.20
2023-04-02T02:16:27.362Z,12.20
2023-04-02T02:18:58.918Z,12.20
2023-04-02T02:21:38.285Z,12.10
2023-04-02T02:24:16.091Z,12.00
2023-04-02T02:26:45.146Z,12.00
2023-04-02T02:29:19.440Z,11.90
2023-04-02T02:31:55.336Z,11.90
2023-04-02T02:34:30.472Z,11.80
2023-04-02T02:37:03.494Z,11.80
2023-04-02T02:39:36.850Z,11.90
2023-04-02T02:42:12.674Z,11.90
2023-04-02T02:44:44.779Z,11.90
2023-04-02T02:47:16.923Z,11.90
2023-04-02T02:49:49.983Z,11.90
2023-04-02T02:52:21.979Z,11.90
2023-04-02T02:55:02.220Z,11.90
2023-04-02T02:57:43.581Z,11.80
2023-04-02T03:00:13.446Z,11.70
2023-04-02T03:02:44.262Z,11.70
2023-04-02T03:05:19.253Z,11.70
2023-04-02T03:07:48.234Z,11.70
2023-04-02T03:10:22.526Z,11.70
2023-04-02T03:12:57.920Z,11.70
2023-04-02T03:15:34.175Z,11.70
2023-04-02T03:18:09.775Z,11.70
2023-04-02T03:20:42.251Z,11.70
2023-04-02T03:23:20.411Z,11.70
2023-04-02T03:25:56.770Z,11.70
2023-04-02T03:28:30.054Z,11.60
2023-04-02T03:31:03.113Z,11.60
2023-04-02T03:33:37.021Z,11.60
2023-04-02T03:36:19.948Z,11.50
2023-04-02T03:38:53.061Z,11.50
2023-04-02T03:41:27.186Z,11.40
2023-04-02T03:44:00.389Z,11.40
2023-04-02T03:46:35.271Z,11.30
2023-04-02T03:49:08.653Z,11.30
2023-04-02T03:51:47.143Z,11.30
2023-04-02T03:54:17.612Z,11.30
2023-04-02T03:56:47.753Z,11.30
2023-04-02T03:59:32.054Z,11.30
2023-04-02T04:02:07.732Z,11.20
2023-04-02T04:04:41.880Z,11.20
2023-04-02T04:07:17.254Z,11.20
2023-04-02T04:09:48.034Z,11.30
2023-04-02T04:12:26.521Z,11.30
2023-04-02T04:15:01.076Z,11.30
2023-04-02T04:17:38.537Z,11.30
2023-04-02T04:20:21.884Z,11.20
2023-04-02T04:22:55.909Z,11.10
2023-04-02T04:25:30.745Z,11.10
2023-04-02T04:28:11.718Z,11.20
2023-04-02T04:30:51.087Z,11.10
2023-04-02T04:33:24.178Z,11.10
2023-04-02T04:36:00.500Z,11.00
2023-04-02T04:38:39.397Z,11.00
2023-04-02T04:41:16.725Z,11.00
2023-04-02T04:43:51.080Z,11.00
2023-04-02T04:46:23.005Z,11.00
2023-04-02T04:48:56.905Z,11.00
2023-04-02T04:51:31.222Z,11.00
2023-04-02T04:54:01.612Z,10.90
2023-04-02T04:56:33.758Z,10.80
2023-04-02T04:59:19.141Z,10.80
2023-04-02T05:01:54.339Z,10.80
2023-04-02T05:04:29.647Z,10.80
2023-04-02T05:07:06.051Z,10.80
2023-04-02T05:09:38.678Z,10.80
2023-04-02T05:12:13.538Z,10.80
2023-04-02T05:14:48.129Z,10.80
2023-04-02T05:17:23.515Z,10.90
2023-04-02T05:19:57.760Z,10.90
2023-04-02T05:22:36.028Z,10.90
2023-04-02T05:25:18.035Z,11.00
2023-04-02T05:27:53.610Z,11.10
2023-04-02T05:30:41.331Z,11.30
2023-04-02T05:33:20.926Z,11.40
2023-04-02T05:35:52.530Z,11.40
2023-04-02T05:38:26.240Z,11.50
2023-04-02T05:41:01.873Z,11.60
2023-04-02T05:43:35.101Z,11.60
2023-04-02T05:46:15.207Z,11.70
2023-04-02T05:48:46.202Z,11.80
2023-04-02T05:51:19.975Z,11.90
2023-04-02T05:53:53.735Z,11.90
2023-04-02T05:56:26.111Z,11.90
2023-04-02T05:58:59.283Z,11.90
2023-04-02T06:01:41.283Z,12.00
2023-04-02T06:04:22.010Z,12.00
2023-04-02T06:07:00.034Z,12.20
2023-04-02T06:09:37.752Z,12.50
2023-04-02T06:12:17.714Z,12.80
2023-04-02T06:14:47.155Z,13.10
2023-04-02T06:17:17.373Z,13.20
2023-04-02T06:19:47.872Z,13.30
2023-04-02T06:22:28.445Z,13.30
2023-04-02T06:25:04.336Z,13.50
2023-04-02T06:27:41.181Z,14.30
2023-04-02T06:30:19.753Z,15.10
2023-04-02T06:32:51.492Z,15.20
2023-04-02T06:35:21.469Z,15.00
2023-04-02T06:38:03.890Z,14.90
2023-04-02T06:40:41.922Z,14.90
2023-04-02T06:43:21.133Z,14.70
2023-04-02T06:46:15.006Z,14.70
2023-04-02T06:49:04.608Z,14.40
2023-04-02T06:51:37.164Z,14.30
2023-04-02T06:54:06.915Z,14.10
2023-04-02T06:56:43.555Z,14.00
2023-04-02T06:59:15.087Z,13.90
2023-04-02T07:01:49.942Z,13.80
2023-04-02T07:04:20.083Z,13.40
2023-04-02T07:06:51.277Z,13.30
2023-04-02T07:09:20.614Z,13.10
2023-04-02T07:11:54.222Z,13.10
2023-04-02T07:14:22.918Z,13.10
2023-04-02T07:16:52.781Z,13.10
2023-04-02T07:19:23.760Z,13.10
2023-04-02T07:21:58.342Z,13.10
2023-04-02T07:24:40.780Z,13.10
2023-04-02T07:27:11.326Z,13.20
2023-04-02T07:29:42.871Z,13.20
2023-04-02T07:32:13.094Z,13.20
2023-04-02T07:34:41.806Z,13.30
2023-04-02T07:37:15.108Z,13.40
2023-04-02T07:39:43.385Z,13.70
2023-04-02T07:42:13.100Z,14.10
2023-04-02T07:44:41.547Z,15.80
2023-04-02T07:47:27.483Z,17.60
2023-04-02T07:49:55.876Z,17.50
2023-04-02T07:52:24.133Z,17.30
2023-04-02T07:54:52.445Z,17.00
2023-04-02T07:57:22.428Z,16.80
2023-04-02T07:59:51.596Z,16.70
2023-04-02T08:02:21.530Z,16.40
2023-04-02T08:04:50.131Z,15.90
2023-04-02T08:07:19.174Z,15.50
2023-04-02T08:09:47.569Z,15.10
2023-04-02T08:12:16.447Z,14.80
2023-04-02T08:14:46.291Z,14.50
2023-04-02T08:17:14.635Z,14.30
2023-04-02T08:19:54.279Z,14.20
2023-04-02T08:22:23.564Z,14.10
2023-04-02T08:24:51.900Z,14.00
2023-04-02T08:27:20.336Z,13.90
2023-04-02T08:29:50.286Z,13.90
2023-04-02T08:32:18.756Z,13.80
2023-04-02T08:34:47.337Z,13.80
2023-04-02T08:37:16.234Z,13.70
2023-04-02T08:39:44.596Z,13.70
2023-04-02T08:42:24.220Z,13.80
2023-04-02T08:45:21.151Z,14.00
2023-04-02T08:47:57.578Z,14.10
2023-04-02T08:50:31.551Z,14.00
2023-04-02T08:53:00.582Z,13.90
2023-04-02T08:55:37.461Z,13.80
2023-04-02T08:58:14.492Z,13.80
2023-04-02T09:00:46.689Z,13.70
2023-04-02T09:03:18.897Z,13.80
2023-04-02T09:05:49.782Z,13.80
2023-04-02T09:08:20.831Z,13.90
2023-04-02T09:10:54.402Z,14.10
2023-04-02T09:13:26.137Z,14.30
2023-04-02T09:16:01.681Z,14.60
2023-04-02T09:18:32.889Z,14.70
2023-04-02T09:21:03.523Z,14.90
2023-04-02T09:23:31.939Z,15.10
2023-04-02T09:26:04.668Z,15.30
2023-04-02T09:28:33.426Z,15.60
2023-04-02T09:31:10.717Z,16.00
2023-04-02T09:33:44.048Z,16.40
2023-04-02T09:36:34.976Z,16.90
2023-04-02T09:39:16.744Z,17.30
2023-04-02T09:41:50.235Z,17.50
2023-04-02T09:44:30.482Z,17.60
2023-04-02T09:47:03.713Z,17.50
2023-04-02T09:49:34.163Z,17.80
2023-04-02T09:52:19.091Z,18.10
2023-04-02T09:54:48.349Z,18.00
2023-04-02T09:57:24.334Z,18.10
2023-04-02T10:00:14.640Z,18.20
2023-04-02T10:03:04.739Z,18.20
2023-04-02T10:08:18.895Z,18.30
2023-04-02T10:10:51.714Z,18.10
2023-04-02T10:13:26.304Z,18.00
2023-04-02T10:16:00.088Z,18.10
2023-04-02T10:18:47.706Z,18.20
2023-04-02T10:21:20.625Z,18.00
2023-04-02T10:23:49.837Z,18.10
2023-04-02T10:26:31.726Z,18.20
2023-04-02T10:29:16.898Z,18.20
2023-04-02T10:31:53.453Z,18.30
2023-04-02T10:34:30.035Z,18.20
2023-04-02T10:37:04.186Z,18.30
2023-04-02T10:39:39.282Z,18.30
2023-04-02T10:42:16.584Z,18.20
2023-04-02T10:44:53.841Z,18.20
2023-04-02T10:47:32.272Z,18.30
2023-04-02T10:50:16.216Z,18.40
2023-04-02T10:52:49.745Z,18.40
2023-04-02T10:55:22.462Z,18.60
2023-04-02T10:57:54.052Z,18.60
2023-04-02T11:00:26.616Z,18.70
2023-04-02T11:03:00.228Z,18.70
2023-04-02T11:05:37.499Z,18.50
2023-04-02T11:08:12.969Z,18.30
2023-04-02T11:10:47.558Z,18.20
2023-04-02T11:13:22.782Z,18.20
2023-04-02T11:15:51.677Z,18.00
2023-04-02T11:18:29.736Z,17.70
2023-04-02T11:21:02.625Z,17.60
2023-04-02T11:23:34.390Z,17.50
2023-04-02T11:26:32.393Z,17.30
2023-04-02T11:29:28.131Z,17.10
2023-04-02T11:32:34.547Z,17.00
2023-04-02T11:35:35.894Z,16.90
2023-04-02T11:38:40.990Z,16.80
2023-04-02T11:41:10.665Z,16.60
2023-04-02T11:43:53.249Z,16.50
2023-04-02T11:46:46.882Z,16.40
2023-04-02T11:49:39.752Z,16.40
2023-04-02T11:52:26.298Z,16.40
2023-04-02T11:55:01.342Z,16.40
2023-04-02T11:57:48.140Z,16.40
2023-04-02T12:00:51.007Z,16.30
2023-04-02T12:03:37.166Z,16.20
2023-04-02T12:06:10.823Z,16.20
2023-04-02T12:08:57.727Z,16.10
2023-04-02T12:11:35.949Z,16.10
2023-04-02T12:14:29.129Z,16.10
2023-04-02T12:16:59.731Z,16.10
2023-04-02T12:19:31.118Z,16.00
2023-04-02T12:22:00.749Z,16.10
2023-04-02T12:24:31.510Z,16.00
2023-04-02T12:27:15.587Z,15.90
2023-04-02T12:29:44.568Z,15.90
2023-04-02T12:32:22.952Z,15.60
2023-04-02T12:34:53.072Z,15.50
2023-04-02T12:37:24.453Z,15.40
2023-04-02T12:39:55.217Z,15.30
2023-04-02T12:42:28.752Z,15.30
2023-04-02T12:44:57.068Z,15.20
2023-04-02T12:47:27.144Z,15.00
2023-04-02T12:49:56.562Z,15.00
2023-04-02T12:52:28.732Z,14.90
2023-04-02T12:54:59.147Z,14.90
2023-04-02T12:57:40.576Z,14.90
2023-04-02T13:00:29.812Z,14.90
2023-04-02T13:03:03.950Z,14.90
2023-04-02T13:05:39.647Z,14.80
2023-04-02T13:08:25.222Z,14.80
2023-04-02T13:10:56.143Z,14.70
2023-04-02T13:13:30.208Z,14.60
2023-04-02T13:16:09.162Z,14.60
2023-04-02T13:18:39.893Z,14.60
2023-04-02T13:21:23.929Z,14.60
2023-04-02T13:23:53.063Z,14.50
2023-04-02T13:26:25.034Z,14.50
2023-04-02T13:28:59.499Z,14.50
2023-04-02T13:31:28.181Z,14.40
2023-04-02T13:33:58.838Z,14.30
2023-04-02T13:36:31.131Z,14.20
2023-04-02T13:39:01.458Z,14.20
2023-04-02T13:41:32.203Z,14.10
2023-04-02T13:44:03.910Z,14.00
2023-04-02T13:46:34.925Z,14.10
2023-04-02T13:49:05.194Z,14.00
2023-04-02T13:51:37.283Z,14.00
2023-04-02T13:54:10.772Z,14.10
2023-04-02T13:56:39.841Z,14.00
2023-04-02T13:59:08.270Z,14.00
2023-04-02T14:01:38.236Z,14.00
2023-04-02T14:04:09.819Z,13.90
2023-04-02T14:07:09.737Z,13.80
2023-04-02T14:09:51.021Z,13.70
2023-04-02T14:12:32.435Z,13.60
2023-04-02T14:15:14.271Z,13.50
2023-04-02T14:17:53.776Z,13.40
2023-04-02T14:20:37.637Z,13.40
2023-04-02T14:23:22.625Z,13.30
2023-04-02T14:25:59.059Z,13.30
2023-04-02T14:28:38.175Z,13.30
2023-04-02T14:31:18.322Z,13.20
2023-04-02T14:33:57.382Z,13.30
2023-04-02T14:36:36.126Z,13.30
2023-04-02T14:39:14.667Z,13.20
2023-04-02T14:41:51.116Z,13.20
2023-04-02T14:44:24.420Z,13.20
2023-04-02T14:47:06.680Z,13.20
2023-04-02T14:49:41.751Z,13.20
2023-04-02T14:52:14.926Z,13.20
2023-04-02T14:54:52.016Z,13.10
2023-04-02T14:57:24.617Z,13.10
2023-04-02T14:59:59.339Z,13.10
2023-04-02T15:02:36.115Z,13.10
2023-04-02T15:05:06.985Z,13.10
2023-04-02T15:07:46.235Z,13.10
2023-04-02T15:10:23.906Z,13.10
2023-04-02T15:12:53.632Z,13.20
2023-04-02T15:15:40.068Z,13.30
2023-04-02T15:18:14.043Z,13.40
2023-04-02T15:20:52.415Z,13.50
2023-04-02T15:23:30.924Z,13.50
2023-04-02T15:26:09.011Z,13.60
2023-04-02T15:28:43.013Z,13.70
2023-04-02T15:31:15.432Z,13.60
2023-04-02T15:33:45.894Z,13.70
2023-04-02T15:36:33.207Z,13.80
2023-04-02T15:39:21.082Z,13.90
2023-04-02T15:42:01.231Z,14.00
2023-04-02T15:44:29.641Z,14.10
2023-04-02T15:47:04.451Z,14.10
2023-04-02T15:49:43.079Z,14.10
2023-04-02T15:52:22.569Z,14.10
2023-04-02T15:55:16.423Z,14.10
2023-04-02T15:58:06.605Z,14.10
2023-04-02T16:00:38.110Z,14.10
2023-04-02T16:03:34.682Z,14.20
2023-04-02T16:06:27.283Z,14.20
2023-04-02T16:09:11.744Z,14.20
2023-04-02T16:11:44.942Z,14.20
2023-04-02T16:14:29.519Z,14.10
2023-04-02T16:17:17.548Z,14.10
2023-04-02T16:19:55.632Z,14.10
2023-04-02T16:22:27.848Z,14.00
2023-04-02T16:25:02.469Z,14.00
2023-04-02T16:27:36.735Z,13.90
2023-04-02T16:30:35.614Z,13.90
2023-04-02T16:33:20.031Z,13.90
2023-04-02T16:35:57.569Z,13.90
2023-04-02T16:38:42.913Z,13.80
2023-04-02T16:41:20.418Z,13.70
2023-04-02T16:44:02.273Z,13.70
2023-04-02T16:46:41.002Z,13.60
2023-04-02T16:49:22.440Z,13.60
2023-04-02T16:52:00.206Z,13.60
2023-04-02T16:54:36.842Z,13.50
2023-04-02T16:57:21.433Z,13.40
2023-04-02T17:00:01.249Z,13.40
2023-04-02T17:02:43.490Z,13.30
2023-04-02T17:05:22.179Z,13.30
2023-04-02T17:07:56.614Z,13.20
2023-04-02T17:10:30.833Z,13.10
2023-04-02T17:13:30.409Z,13.10
2023-04-02T17:16:15.140Z,13.00
2023-04-02T17:18:48.127Z,12.90
2023-04-02T17:21:22.602Z,12.90
2023-04-02T17:23:56.609Z,12.80
2023-04-02T17:26:31.119Z,12.80
2023-04-02T17:29:09.821Z,12.70
2023-04-02T17:31:42.619Z,12.70
2023-04-02T17:34:14.608Z,12.60
2023-04-02T17:36:50.303Z,12.60
2023-04-02T17:39:23.695Z,12.50
2023-04-02T17:42:01.320Z,12.40
2023-04-02T17:44:51.772Z,12.40
2023-04-02T17:47:34.854Z,12.30
2023-04-02T17:50:33.690Z,12.30
2023-04-02T17:53:09.994Z,12.20
2023-04-02T17:55:49.392Z,12.10
2023-04-02T17:58:30.769Z,12.00
2023-04-02T18:01:05.469Z,11.90
2023-04-02T18:03:50.961Z,11.80
2023-04-02T18:06:22.900Z,11.70
2023-04-02T18:09:05.399Z,11.60
2023-04-02T18:11:42.975Z,11.50
2023-04-02T18:14:29.015Z,11.40
2023-04-02T18:17:06.521Z,11.30
2023-04-02T18:19:43.856Z,11.20
2023-04-02T18:22:20.320Z,11.20
2023-04-02T18:25:05.806Z,11.10
2023-04-02T18:27:56.769Z,11.10
2023-04-02T18:30:31.175Z,11.00
2023-04-02T18:33:28.913Z,11.00
2023-04-02T18:36:07.579Z,11.00
2023-04-02T18:38:45.466Z,11.00
2023-04-02T18:41:31.721Z,10.90
2023-04-02T18:44:17.889Z,10.80
2023-04-02T18:46:53.985Z,10.80
2023-04-02T18:49:30.751Z,10.70
2023-04-02T18:52:05.647Z,10.70
2023-04-02T18:54:38.723Z,10.60
2023-04-02T18:57:21.492Z,10.50
2023-04-02T19:00:00.395Z,10.50
2023-04-02T19:02:43.653Z,10.40
2023-04-02T19:05:33.895Z,10.30
2023-04-02T19:08:12.160Z,10.30
2023-04-02T19:10:45.933Z,10.20
2023-04-02T19:13:19.149Z,10.20
2023-04-02T19:16:23.402Z,10.10
2023-04-02T19:19:01.443Z,10.20
2023-04-02T19:21:40.051Z,10.10
2023-04-02T19:24:22.506Z,10.10
2023-04-02T19:26:56.772Z,10.20
2023-04-02T19:29:39.874Z,10.20
2023-04-02T19:32:25.021Z,10.20
2023-04-02T19:35:06.787Z,10.10
2023-04-02T19:37:41.292Z,10.00
2023-04-02T19:40:24.976Z,10.00
2023-04-02T19:42:54.586Z,9.90
2023-04-02T19:45:34.639Z,9.90
2023-04-02T19:48:12.537Z,9.90
2023-04-02T19:50:44.350Z,9.80
2023-04-02T19:53:21.430Z,9.80
2023-04-02T19:56:06.965Z,9.80
2023-04-02T19:58:37.134Z,9.80
2023-04-02T20:01:07.031Z,9.70
2023-04-02T20:03:37.385Z,9.70
2023-04-02T20:06:06.482Z,9.70
2023-04-02T20:08:38.213Z,9.60
2023-04-02T20:11:08.921Z,9.60
2023-04-02T20:13:39.623Z,9.60
2023-04-02T20:16:08.872Z,9.50
2023-04-02T20:18:39.429Z,9.40
2023-04-02T20:21:10.285Z,9.40
2023-04-02T20:23:51.322Z,9.30
2023-04-02T20:26:22.287Z,9.30
2023-04-02T20:28:50.966Z,9.30
2023-04-02T20:31:20.093Z,9.20
2023-04-02T20:33:51.029Z,9.20
2023-04-02T20:36:20.029Z,9.10
2023-04-02T20:38:50.330Z,9.20
2023-04-02T20:41:21.944Z,9.20
2023-04-02T20:43:56.105Z,9.20
2023-04-02T20:46:28.560Z,9.10
2023-04-02T20:48:57.845Z,9.10
2023-04-02T20:51:26.182Z,9.20
2023-04-02T20:53:56.561Z,9.20
2023-04-02T20:56:27.773Z,9.20
2023-04-02T20:58:56.451Z,9.10
2023-04-02T21:01:26.695Z,9.10
2023-04-02T21:03:57.097Z,9.10
2023-04-02T21:06:27.192Z,9.10
2023-04-02T21:08:55.566Z,9.00
2023-04-02T21:11:24.648Z,8.90
2023-04-02T21:13:54.387Z,8.90
2023-04-02T21:16:24.963Z,8.80
2023-04-02T21:18:54.074Z,8.70
2023-04-02T21:21:23.767Z,8.70
2023-04-02T21:23:56.248Z,8.60
2023-04-02T21:26:25.135Z,8.70
2023-04-02T21:28:55.339Z,8.70
2023-04-02T21:31:25.128Z,8.70
2023-04-02T21:33:55.051Z,8.60
2023-04-02T21:36:24.960Z,8.60
2023-04-02T21:38:55.520Z,8.60
2023-04-02T21:41:26.467Z,8.60
2023-04-02T21:43:57.302Z,8.60
2023-04-02T21:46:27.974Z,8.60
2023-04-02T21:48:58.373Z,8.60
2023-04-02T21:51:28.945Z,8.50
2023-04-02T21:53:57.742Z,8.50
2023-04-02T21:56:27.844Z,8.50
2023-04-02T21:58:58.556Z,8.40
2023-04-02T22:01:29.263Z,8.40
2023-04-02T22:03:59.473Z,8.40
2023-04-02T22:06:29.752Z,8.40
2023-04-02T22:09:01.099Z,8.30
2023-04-02T22:11:31.716Z,8.30
2023-04-02T22:16:48.965Z,8.30
2023-04-02T22:19:18.385Z,8.30
2023-04-02T22:21:46.979Z,8.30
2023-04-02T22:24:18.771Z,8.40
2023-04-02T22:26:47.629Z,8.40
2023-04-02T22:29:17.374Z,8.40
2023-04-02T22:31:46.029Z,8.40
2023-04-02T22:34:14.466Z,8.40
2023-04-02T22:36:42.895Z,8.40
2023-04-02T22:39:12.542Z,8.40
2023-04-02T22:41:41.083Z,8.30
2023-04-02T22:44:15.416Z,8.30
2023-04-02T22:46:45.157Z,8.30
2023-04-02T22:49:19.136Z,8.30
2023-04-02T22:54:33.822Z,8.30
2023-04-02T22:57:02.164Z,8.40
2023-04-02T22:59:30.561Z,8.40
2023-04-02T23:02:18.947Z,8.40
2023-04-02T23:04:50.138Z,8.40
2023-04-02T23:07:18.531Z,8.40
2023-04-02T23:09:46.813Z,8.30
2023-04-02T23:12:15.146Z,8.30
2023-04-02T23:15:02.224Z,8.30
2023-04-02T23:17:44.072Z,8.20
2023-04-02T23:20:13.344Z,8.20
2023-04-02T23:22:41.686Z,8.20
2023-04-02T23:25:28.591Z,8.20
2023-04-02T23:27:56.984Z,8.20
2023-04-02T23:30:25.306Z,8.20
2023-04-02T23:32:55.031Z,8.30
2023-04-02T23:35:23.341Z,8.30
2023-04-02T23:37:51.653Z,8.30
2023-04-02T23:40:20.111Z,8.30
2023-04-02T23:42:48.439Z,8.30
2023-04-02T23:45:17.597Z,8.20
2023-04-02T23:47:45.936Z,8.30
2023-04-02T23:50:15.666Z,8.30
2023-04-02T23:52:43.950Z,8.30
2023-04-02T23:55:13.218Z,8.40
2023-04-02T23:57:41.507Z,8.50
